Terminal Aerodrome Forecast
Issued by NWS

Home | Current Version | Previous Version | Text Only | Print | Product List | Glossary On
Versions: 1 2 3 4 5 6 7 8 9 10 11 12 13 14 15 16 17 18 19 20 21 22 23 24 25
361
FTUS43 KLSX 300616 AAA
TAFCPS
TAF AMD
KCPS 300616Z 3006/0106 10010KT 4SM -SHRA BR VCTS SCT015 BKN030CB
      OVC050
      TEMPO 3008/3010 2SM +TSRA SCT008 BKN015CB
     FM301000 11015G23KT 4SM -SHRA BR VCTS OVC015CB
     FM301500 14015G25KT P6SM OVC010
     FM301800 20012KT P6SM BKN035
     FM010000 22007KT P6SM VCTS SCT040CB BKN120
     FM010300 27005KT P6SM SCT040 BKN120=

USA.gov is the U.S. government's official web portal to all federal, state and local government web resources and services.